sensor_id;sensor_type;location;lat;lon;timestamp;P1;durP1;ratioP1;P2;durP2;ratioP2
12350;SDS011;6240;51.538;7.696;2022-07-29T00:01:05;6.65;;;1.60;;
12350;SDS011;6240;51.538;7.696;2022-07-29T00:03:32;3.17;;;1.70;;
12350;SDS011;6240;51.538;7.696;2022-07-29T00:06:01;2.63;;;1.50;;
12350;SDS011;6240;51.538;7.696;2022-07-29T00:08:28;4.72;;;1.73;;
12350;SDS011;6240;51.538;7.696;2022-07-29T00:10:55;6.32;;;1.80;;
12350;SDS011;6240;51.538;7.696;2022-07-29T00:13:22;3.90;;;1.60;;
12350;SDS011;6240;51.538;7.696;2022-07-29T00:15:49;5.18;;;1.73;;
12350;SDS011;6240;51.538;7.696;2022-07-29T00:18:17;7.40;;;1.60;;
12350;SDS011;6240;51.538;7.696;2022-07-29T00:20:44;4.28;;;1.52;;
12350;SDS011;6240;51.538;7.696;2022-07-29T00:23:13;3.67;;;1.42;;
12350;SDS011;6240;51.538;7.696;2022-07-29T00:25:40;2.75;;;1.33;;
12350;SDS011;6240;51.538;7.696;2022-07-29T00:28:07;2.63;;;1.50;;
12350;SDS011;6240;51.538;7.696;2022-07-29T00:30:35;4.75;;;1.42;;
12350;SDS011;6240;51.538;7.696;2022-07-29T00:33:02;4.40;;;1.60;;
12350;SDS011;6240;51.538;7.696;2022-07-29T00:35:29;4.55;;;1.63;;
12350;SDS011;6240;51.538;7.696;2022-07-29T00:38:12;3.35;;;1.58;;
12350;SDS011;6240;51.538;7.696;2022-07-29T00:40:40;3.67;;;1.30;;
12350;SDS011;6240;51.538;7.696;2022-07-29T00:43:11;4.75;;;1.55;;
12350;SDS011;6240;51.538;7.696;2022-07-29T00:45:38;4.93;;;1.83;;
12350;SDS011;6240;51.538;7.696;2022-07-29T00:48:06;4.00;;;1.40;;
12350;SDS011;6240;51.538;7.696;2022-07-29T00:50:34;2.60;;;1.60;;
12350;SDS011;6240;51.538;7.696;2022-07-29T00:53:02;5.25;;;1.70;;
12350;SDS011;6240;51.538;7.696;2022-07-29T00:55:31;2.85;;;1.42;;
12350;SDS011;6240;51.538;7.696;2022-07-29T00:57:58;4.50;;;1.45;;
12350;SDS011;6240;51.538;7.696;2022-07-29T01:00:26;8.80;;;1.92;;
12350;SDS011;6240;51.538;7.696;2022-07-29T01:02:53;7.05;;;1.70;;
12350;SDS011;6240;51.538;7.696;2022-07-29T01:05:21;5.65;;;1.42;;
12350;SDS011;6240;51.538;7.696;2022-07-29T01:07:49;2.58;;;1.60;;
12350;SDS011;6240;51.538;7.696;2022-07-29T01:10:16;4.50;;;1.67;;
12350;SDS011;6240;51.538;7.696;2022-07-29T01:12:47;6.30;;;1.67;;
12350;SDS011;6240;51.538;7.696;2022-07-29T01:15:15;2.70;;;1.55;;
12350;SDS011;6240;51.538;7.696;2022-07-29T01:17:43;4.88;;;1.40;;
12350;SDS011;6240;51.538;7.696;2022-07-29T01:20:12;3.53;;;1.70;;
12350;SDS011;6240;51.538;7.696;2022-07-29T01:22:45;3.47;;;1.63;;
12350;SDS011;6240;51.538;7.696;2022-07-29T01:25:17;4.40;;;1.58;;
12350;SDS011;6240;51.538;7.696;2022-07-29T01:28:00;3.95;;;1.73;;
12350;SDS011;6240;51.538;7.696;2022-07-29T01:30:29;5.45;;;1.52;;
12350;SDS011;6240;51.538;7.696;2022-07-29T01:32:59;3.88;;;1.83;;
12350;SDS011;6240;51.538;7.696;2022-07-29T01:35:28;3.55;;;1.40;;
12350;SDS011;6240;51.538;7.696;2022-07-29T01:38:00;4.60;;;1.63;;
12350;SDS011;6240;51.538;7.696;2022-07-29T01:40:29;4.03;;;1.58;;
12350;SDS011;6240;51.538;7.696;2022-07-29T01:42:58;1.70;;;1.30;;
12350;SDS011;6240;51.538;7.696;2022-07-29T01:45:28;2.65;;;1.30;;
12350;SDS011;6240;51.538;7.696;2022-07-29T01:48:01;2.70;;;1.65;;
12350;SDS011;6240;51.538;7.696;2022-07-29T01:50:30;3.63;;;1.60;;
12350;SDS011;6240;51.538;7.696;2022-07-29T01:52:59;5.10;;;1.77;;
12350;SDS011;6240;51.538;7.696;2022-07-29T01:55:29;4.85;;;1.60;;
12350;SDS011;6240;51.538;7.696;2022-07-29T01:57:58;3.92;;;1.42;;
12350;SDS011;6240;51.538;7.696;2022-07-29T02:00:26;3.60;;;1.50;;
12350;SDS011;6240;51.538;7.696;2022-07-29T02:02:54;3.63;;;1.25;;
12350;SDS011;6240;51.538;7.696;2022-07-29T02:05:24;2.22;;;1.50;;
12350;SDS011;6240;51.538;7.696;2022-07-29T02:07:54;6.85;;;1.70;;
12350;SDS011;6240;51.538;7.696;2022-07-29T02:10:23;5.45;;;1.90;;
12350;SDS011;6240;51.538;7.696;2022-07-29T02:12:52;5.35;;;1.42;;
12350;SDS011;6240;51.538;7.696;2022-07-29T02:15:20;2.30;;;1.35;;
12350;SDS011;6240;51.538;7.696;2022-07-29T02:17:49;3.13;;;1.42;;
12350;SDS011;6240;51.538;7.696;2022-07-29T02:20:17;4.25;;;1.50;;
12350;SDS011;6240;51.538;7.696;2022-07-29T02:22:46;4.97;;;1.80;;
12350;SDS011;6240;51.538;7.696;2022-07-29T02:25:15;4.90;;;1.50;;
12350;SDS011;6240;51.538;7.696;2022-07-29T02:27:43;3.47;;;1.35;;
12350;SDS011;6240;51.538;7.696;2022-07-29T02:30:11;4.10;;;1.55;;
12350;SDS011;6240;51.538;7.696;2022-07-29T02:32:39;6.00;;;1.60;;
12350;SDS011;6240;51.538;7.696;2022-07-29T02:35:07;4.38;;;1.75;;
12350;SDS011;6240;51.538;7.696;2022-07-29T02:37:35;7.25;;;1.70;;
12350;SDS011;6240;51.538;7.696;2022-07-29T02:40:04;3.50;;;1.65;;
12350;SDS011;6240;51.538;7.696;2022-07-29T02:42:34;6.55;;;1.92;;
12350;SDS011;6240;51.538;7.696;2022-07-29T02:45:03;3.58;;;1.40;;
12350;SDS011;6240;51.538;7.696;2022-07-29T02:47:32;9.85;;;1.90;;
12350;SDS011;6240;51.538;7.696;2022-07-29T02:50:02;5.18;;;1.80;;
12350;SDS011;6240;51.538;7.696;2022-07-29T02:52:34;6.70;;;1.77;;
12350;SDS011;6240;51.538;7.696;2022-07-29T02:55:07;3.15;;;1.58;;
12350;SDS011;6240;51.538;7.696;2022-07-29T02:57:39;4.68;;;2.08;;
12350;SDS011;6240;51.538;7.696;2022-07-29T03:00:08;4.72;;;1.60;;
12350;SDS011;6240;51.538;7.696;2022-07-29T03:02:39;4.00;;;1.98;;
12350;SDS011;6240;51.538;7.696;2022-07-29T03:05:08;5.38;;;1.95;;
12350;SDS011;6240;51.538;7.696;2022-07-29T03:07:36;5.75;;;1.80;;
12350;SDS011;6240;51.538;7.696;2022-07-29T03:10:04;2.67;;;1.83;;
12350;SDS011;6240;51.538;7.696;2022-07-29T03:12:34;3.72;;;1.70;;
12350;SDS011;6240;51.538;7.696;2022-07-29T03:15:02;6.10;;;1.90;;
12350;SDS011;6240;51.538;7.696;2022-07-29T03:17:29;2.38;;;1.60;;
12350;SDS011;6240;51.538;7.696;2022-07-29T03:19:58;5.60;;;2.30;;
12350;SDS011;6240;51.538;7.696;2022-07-29T03:22:25;4.82;;;1.70;;
12350;SDS011;6240;51.538;7.696;2022-07-29T03:24:52;7.00;;;2.15;;
12350;SDS011;6240;51.538;7.696;2022-07-29T03:27:19;3.72;;;1.55;;
12350;SDS011;6240;51.538;7.696;2022-07-29T03:29:50;6.13;;;2.25;;
12350;SDS011;6240;51.538;7.696;2022-07-29T03:32:20;4.03;;;1.70;;
12350;SDS011;6240;51.538;7.696;2022-07-29T03:34:49;4.07;;;1.95;;
12350;SDS011;6240;51.538;7.696;2022-07-29T03:37:16;4.80;;;2.03;;
12350;SDS011;6240;51.538;7.696;2022-07-29T03:39:43;6.32;;;1.98;;
12350;SDS011;6240;51.538;7.696;2022-07-29T03:42:12;2.42;;;1.67;;
12350;SDS011;6240;51.538;7.696;2022-07-29T03:44:42;4.05;;;1.67;;
12350;SDS011;6240;51.538;7.696;2022-07-29T03:47:12;4.75;;;2.13;;
12350;SDS011;6240;51.538;7.696;2022-07-29T03:49:41;6.65;;;2.10;;
12350;SDS011;6240;51.538;7.696;2022-07-29T03:52:11;5.20;;;1.60;;
12350;SDS011;6240;51.538;7.696;2022-07-29T03:54:39;2.28;;;1.80;;
12350;SDS011;6240;51.538;7.696;2022-07-29T03:57:06;4.47;;;1.58;;
12350;SDS011;6240;51.538;7.696;2022-07-29T03:59:34;5.68;;;1.90;;
12350;SDS011;6240;51.538;7.696;2022-07-29T04:02:01;6.80;;;1.75;;
12350;SDS011;6240;51.538;7.696;2022-07-29T04:04:33;4.53;;;1.63;;
12350;SDS011;6240;51.538;7.696;2022-07-29T04:07:00;6.15;;;2.00;;
12350;SDS011;6240;51.538;7.696;2022-07-29T04:09:27;6.70;;;1.90;;
12350;SDS011;6240;51.538;7.696;2022-07-29T04:11:55;6.75;;;1.48;;
12350;SDS011;6240;51.538;7.696;2022-07-29T04:14:22;4.03;;;1.73;;
12350;SDS011;6240;51.538;7.696;2022-07-29T04:16:49;3.40;;;2.10;;
12350;SDS011;6240;51.538;7.696;2022-07-29T04:19:18;2.72;;;1.98;;
12350;SDS011;6240;51.538;7.696;2022-07-29T04:21:46;4.80;;;2.55;;
12350;SDS011;6240;51.538;7.696;2022-07-29T04:24:14;2.42;;;1.70;;
12350;SDS011;6240;51.538;7.696;2022-07-29T04:26:41;7.78;;;2.35;;
12350;SDS011;6240;51.538;7.696;2022-07-29T04:29:08;4.82;;;1.98;;
12350;SDS011;6240;51.538;7.696;2022-07-29T04:31:37;5.57;;;1.92;;
12350;SDS011;6240;51.538;7.696;2022-07-29T04:34:04;5.20;;;1.73;;
12350;SDS011;6240;51.538;7.696;2022-07-29T04:36:31;3.90;;;2.10;;
12350;SDS011;6240;51.538;7.696;2022-07-29T04:38:59;4.07;;;1.80;;
12350;SDS011;6240;51.538;7.696;2022-07-29T04:41:27;4.97;;;1.92;;
12350;SDS011;6240;51.538;7.696;2022-07-29T04:43:54;3.65;;;1.90;;
12350;SDS011;6240;51.538;7.696;2022-07-29T04:46:21;4.43;;;1.90;;
12350;SDS011;6240;51.538;7.696;2022-07-29T04:48:48;4.63;;;1.77;;
12350;SDS011;6240;51.538;7.696;2022-07-29T04:51:16;4.18;;;1.75;;
12350;SDS011;6240;51.538;7.696;2022-07-29T04:53:43;4.30;;;2.13;;
12350;SDS011;6240;51.538;7.696;2022-07-29T04:56:12;5.13;;;1.83;;
12350;SDS011;6240;51.538;7.696;2022-07-29T04:58:39;4.22;;;1.83;;
12350;SDS011;6240;51.538;7.696;2022-07-29T05:01:06;7.72;;;2.20;;
12350;SDS011;6240;51.538;7.696;2022-07-29T05:03:33;6.13;;;1.90;;
12350;SDS011;6240;51.538;7.696;2022-07-29T05:06:01;3.38;;;2.00;;
12350;SDS011;6240;51.538;7.696;2022-07-29T05:08:28;5.35;;;1.92;;
12350;SDS011;6240;51.538;7.696;2022-07-29T05:10:55;5.35;;;1.83;;
12350;SDS011;6240;51.538;7.696;2022-07-29T05:13:24;2.33;;;1.40;;
12350;SDS011;6240;51.538;7.696;2022-07-29T05:15:51;2.13;;;1.55;;
12350;SDS011;6240;51.538;7.696;2022-07-29T05:18:18;7.63;;;2.17;;
12350;SDS011;6240;51.538;7.696;2022-07-29T05:20:47;3.45;;;1.77;;
12350;SDS011;6240;51.538;7.696;2022-07-29T05:23:14;3.10;;;2.10;;
12350;SDS011;6240;51.538;7.696;2022-07-29T05:25:41;5.55;;;2.58;;
12350;SDS011;6240;51.538;7.696;2022-07-29T05:28:08;4.30;;;2.00;;
12350;SDS011;6240;51.538;7.696;2022-07-29T05:30:37;5.43;;;1.77;;
12350;SDS011;6240;51.538;7.696;2022-07-29T05:33:04;5.03;;;1.83;;
12350;SDS011;6240;51.538;7.696;2022-07-29T05:35:31;6.25;;;2.00;;
12350;SDS011;6240;51.538;7.696;2022-07-29T05:37:59;3.55;;;1.65;;
12350;SDS011;6240;51.538;7.696;2022-07-29T05:40:27;4.32;;;2.03;;
12350;SDS011;6240;51.538;7.696;2022-07-29T05:42:55;4.28;;;1.63;;
12350;SDS011;6240;51.538;7.696;2022-07-29T05:45:25;3.00;;;1.90;;
12350;SDS011;6240;51.538;7.696;2022-07-29T05:47:55;5.63;;;2.33;;
12350;SDS011;6240;51.538;7.696;2022-07-29T05:50:24;5.07;;;2.28;;
12350;SDS011;6240;51.538;7.696;2022-07-29T05:52:51;5.30;;;2.10;;
12350;SDS011;6240;51.538;7.696;2022-07-29T05:55:18;6.63;;;2.20;;
12350;SDS011;6240;51.538;7.696;2022-07-29T05:57:45;8.00;;;2.58;;
12350;SDS011;6240;51.538;7.696;2022-07-29T06:00:13;5.35;;;1.98;;
12350;SDS011;6240;51.538;7.696;2022-07-29T06:02:41;3.58;;;1.80;;
12350;SDS011;6240;51.538;7.696;2022-07-29T06:05:13;4.78;;;2.00;;
12350;SDS011;6240;51.538;7.696;2022-07-29T06:07:43;5.57;;;1.90;;
12350;SDS011;6240;51.538;7.696;2022-07-29T06:10:10;4.68;;;1.95;;
12350;SDS011;6240;51.538;7.696;2022-07-29T06:12:37;4.10;;;1.98;;
12350;SDS011;6240;51.538;7.696;2022-07-29T06:15:04;5.88;;;1.85;;
12350;SDS011;6240;51.538;7.696;2022-07-29T06:17:32;4.47;;;1.88;;
12350;SDS011;6240;51.538;7.696;2022-07-29T06:19:59;5.10;;;1.75;;
12350;SDS011;6240;51.538;7.696;2022-07-29T06:22:29;6.85;;;1.63;;
12350;SDS011;6240;51.538;7.696;2022-07-29T06:24:56;3.88;;;1.50;;
12350;SDS011;6240;51.538;7.696;2022-07-29T06:27:23;4.18;;;2.03;;
12350;SDS011;6240;51.538;7.696;2022-07-29T06:29:50;7.57;;;1.90;;
12350;SDS011;6240;51.538;7.696;2022-07-29T06:32:18;2.92;;;1.60;;
12350;SDS011;6240;51.538;7.696;2022-07-29T06:34:46;3.78;;;1.70;;
12350;SDS011;6240;51.538;7.696;2022-07-29T06:37:13;2.20;;;1.55;;
12350;SDS011;6240;51.538;7.696;2022-07-29T06:39:42;4.85;;;1.75;;
12350;SDS011;6240;51.538;7.696;2022-07-29T06:42:10;3.60;;;1.80;;
12350;SDS011;6240;51.538;7.696;2022-07-29T06:44:37;3.15;;;1.77;;
12350;SDS011;6240;51.538;7.696;2022-07-29T06:47:04;3.60;;;1.70;;
12350;SDS011;6240;51.538;7.696;2022-07-29T06:49:32;5.75;;;1.88;;
12350;SDS011;6240;51.538;7.696;2022-07-29T06:52:01;2.80;;;1.70;;
12350;SDS011;6240;51.538;7.696;2022-07-29T06:54:28;3.70;;;1.60;;
12350;SDS011;6240;51.538;7.696;2022-07-29T06:56:57;4.47;;;2.08;;
12350;SDS011;6240;51.538;7.696;2022-07-29T06:59:25;3.90;;;1.65;;
12350;SDS011;6240;51.538;7.696;2022-07-29T07:01:52;3.92;;;1.90;;
12350;SDS011;6240;51.538;7.696;2022-07-29T07:04:20;5.13;;;1.65;;
12350;SDS011;6240;51.538;7.696;2022-07-29T07:06:47;5.47;;;1.92;;
12350;SDS011;6240;51.538;7.696;2022-07-29T07:09:16;3.30;;;1.80;;
12350;SDS011;6240;51.538;7.696;2022-07-29T07:11:47;4.45;;;1.90;;
12350;SDS011;6240;51.538;7.696;2022-07-29T07:14:19;5.45;;;1.95;;
12350;SDS011;6240;51.538;7.696;2022-07-29T07:16:50;7.90;;;2.22;;
12350;SDS011;6240;51.538;7.696;2022-07-29T07:19:17;5.68;;;1.95;;
12350;SDS011;6240;51.538;7.696;2022-07-29T07:21:45;5.68;;;2.15;;
12350;SDS011;6240;51.538;7.696;2022-07-29T07:24:12;4.63;;;1.90;;
12350;SDS011;6240;51.538;7.696;2022-07-29T07:26:39;3.45;;;1.90;;
12350;SDS011;6240;51.538;7.696;2022-07-29T07:29:07;4.72;;;2.17;;
12350;SDS011;6240;51.538;7.696;2022-07-29T07:31:35;3.50;;;1.80;;
12350;SDS011;6240;51.538;7.696;2022-07-29T07:34:03;4.35;;;1.90;;
12350;SDS011;6240;51.538;7.696;2022-07-29T07:36:30;4.05;;;1.73;;
12350;SDS011;6240;51.538;7.696;2022-07-29T07:38:57;6.18;;;2.00;;
12350;SDS011;6240;51.538;7.696;2022-07-29T07:41:24;4.30;;;1.90;;
12350;SDS011;6240;51.538;7.696;2022-07-29T07:43:52;3.55;;;1.88;;
12350;SDS011;6240;51.538;7.696;2022-07-29T07:46:19;10.68;;;1.83;;
12350;SDS011;6240;51.538;7.696;2022-07-29T07:48:47;5.20;;;2.05;;
12350;SDS011;6240;51.538;7.696;2022-07-29T07:51:14;2.85;;;1.52;;
12350;SDS011;6240;51.538;7.696;2022-07-29T07:53:42;4.07;;;1.60;;
12350;SDS011;6240;51.538;7.696;2022-07-29T07:56:09;5.47;;;1.70;;
12350;SDS011;6240;51.538;7.696;2022-07-29T07:58:37;7.65;;;2.10;;
12350;SDS011;6240;51.538;7.696;2022-07-29T08:01:04;7.50;;;2.08;;
12350;SDS011;6240;51.538;7.696;2022-07-29T08:03:32;5.55;;;2.28;;
12350;SDS011;6240;51.538;7.696;2022-07-29T08:06:00;4.28;;;1.80;;
12350;SDS011;6240;51.538;7.696;2022-07-29T08:08:28;5.07;;;1.80;;
12350;SDS011;6240;51.538;7.696;2022-07-29T08:10:55;4.85;;;2.03;;
12350;SDS011;6240;51.538;7.696;2022-07-29T08:13:24;4.78;;;2.03;;
12350;SDS011;6240;51.538;7.696;2022-07-29T08:15:54;4.75;;;1.73;;
12350;SDS011;6240;51.538;7.696;2022-07-29T08:18:27;7.18;;;1.83;;
12350;SDS011;6240;51.538;7.696;2022-07-29T08:20:56;4.50;;;1.90;;
12350;SDS011;6240;51.538;7.696;2022-07-29T08:23:25;2.17;;;1.48;;
12350;SDS011;6240;51.538;7.696;2022-07-29T08:25:59;6.13;;;1.73;;
12350;SDS011;6240;51.538;7.696;2022-07-29T08:28:27;5.85;;;1.88;;
12350;SDS011;6240;51.538;7.696;2022-07-29T08:30:54;4.38;;;1.80;;
12350;SDS011;6240;51.538;7.696;2022-07-29T08:33:21;4.85;;;2.00;;
12350;SDS011;6240;51.538;7.696;2022-07-29T08:35:48;7.35;;;2.10;;
12350;SDS011;6240;51.538;7.696;2022-07-29T08:38:16;7.00;;;1.90;;
12350;SDS011;6240;51.538;7.696;2022-07-29T08:40:46;5.63;;;1.65;;
12350;SDS011;6240;51.538;7.696;2022-07-29T08:43:15;3.33;;;1.75;;
12350;SDS011;6240;51.538;7.696;2022-07-29T08:45:43;5.40;;;2.08;;
12350;SDS011;6240;51.538;7.696;2022-07-29T08:48:12;4.53;;;1.85;;
12350;SDS011;6240;51.538;7.696;2022-07-29T08:50:39;5.07;;;1.73;;
12350;SDS011;6240;51.538;7.696;2022-07-29T08:53:06;4.43;;;1.90;;
12350;SDS011;6240;51.538;7.696;2022-07-29T08:55:34;4.85;;;2.35;;
12350;SDS011;6240;51.538;7.696;2022-07-29T08:58:03;7.95;;;2.42;;
12350;SDS011;6240;51.538;7.696;2022-07-29T09:00:31;7.20;;;2.10;;
12350;SDS011;6240;51.538;7.696;2022-07-29T09:03:00;7.20;;;2.42;;
12350;SDS011;6240;51.538;7.696;2022-07-29T09:05:28;5.10;;;2.00;;
12350;SDS011;6240;51.538;7.696;2022-07-29T09:07:56;4.68;;;2.00;;
12350;SDS011;6240;51.538;7.696;2022-07-29T09:10:26;4.22;;;1.60;;
12350;SDS011;6240;51.538;7.696;2022-07-29T09:12:55;4.20;;;1.90;;
12350;SDS011;6240;51.538;7.696;2022-07-29T09:15:24;5.32;;;1.80;;
12350;SDS011;6240;51.538;7.696;2022-07-29T09:17:51;6.53;;;2.30;;
12350;SDS011;6240;51.538;7.696;2022-07-29T09:20:19;9.45;;;2.17;;
12350;SDS011;6240;51.538;7.696;2022-07-29T09:22:47;5.82;;;2.03;;
12350;SDS011;6240;51.538;7.696;2022-07-29T09:25:30;6.25;;;2.13;;
12350;SDS011;6240;51.538;7.696;2022-07-29T09:28:05;9.00;;;2.25;;
12350;SDS011;6240;51.538;7.696;2022-07-29T09:30:33;5.50;;;1.80;;
12350;SDS011;6240;51.538;7.696;2022-07-29T09:33:01;4.38;;;1.90;;
12350;SDS011;6240;51.538;7.696;2022-07-29T09:35:29;2.83;;;1.55;;
12350;SDS011;6240;51.538;7.696;2022-07-29T09:37:56;4.00;;;1.85;;
12350;SDS011;6240;51.538;7.696;2022-07-29T09:40:25;7.97;;;2.17;;
12350;SDS011;6240;51.538;7.696;2022-07-29T09:42:53;6.00;;;1.63;;
12350;SDS011;6240;51.538;7.696;2022-07-29T09:45:26;4.00;;;1.95;;
12350;SDS011;6240;51.538;7.696;2022-07-29T09:47:55;4.85;;;2.25;;
12350;SDS011;6240;51.538;7.696;2022-07-29T09:50:34;4.90;;;1.65;;
12350;SDS011;6240;51.538;7.696;2022-07-29T09:53:01;6.75;;;2.10;;
12350;SDS011;6240;51.538;7.696;2022-07-29T09:55:29;4.18;;;1.90;;
12350;SDS011;6240;51.538;7.696;2022-07-29T09:58:14;4.75;;;2.13;;
12350;SDS011;6240;51.538;7.696;2022-07-29T10:00:44;4.43;;;1.90;;
12350;SDS011;6240;51.538;7.696;2022-07-29T10:03:14;6.30;;;2.00;;
12350;SDS011;6240;51.538;7.696;2022-07-29T10:05:42;4.97;;;1.65;;
12350;SDS011;6240;51.538;7.696;2022-07-29T10:08:10;6.43;;;2.20;;
12350;SDS011;6240;51.538;7.696;2022-07-29T10:10:38;3.33;;;1.83;;
12350;SDS011;6240;51.538;7.696;2022-07-29T10:13:08;5.78;;;2.10;;
12350;SDS011;6240;51.538;7.696;2022-07-29T10:15:35;9.88;;;2.03;;
12350;SDS011;6240;51.538;7.696;2022-07-29T10:18:04;8.55;;;2.03;;
12350;SDS011;6240;51.538;7.696;2022-07-29T10:20:34;4.63;;;1.60;;
12350;SDS011;6240;51.538;7.696;2022-07-29T10:23:02;5.20;;;1.67;;
12350;SDS011;6240;51.538;7.696;2022-07-29T10:25:31;5.35;;;1.98;;
12350;SDS011;6240;51.538;7.696;2022-07-29T10:27:59;3.22;;;1.73;;
12350;SDS011;6240;51.538;7.696;2022-07-29T10:30:26;5.70;;;2.00;;
12350;SDS011;6240;51.538;7.696;2022-07-29T10:33:08;5.50;;;1.45;;
12350;SDS011;6240;51.538;7.696;2022-07-29T10:35:43;3.67;;;1.80;;
12350;SDS011;6240;51.538;7.696;2022-07-29T10:38:31;8.80;;;1.90;;
12350;SDS011;6240;51.538;7.696;2022-07-29T10:41:05;4.03;;;2.08;;
12350;SDS011;6240;51.538;7.696;2022-07-29T10:43:56;7.38;;;1.80;;
12350;SDS011;6240;51.538;7.696;2022-07-29T10:46:27;4.45;;;1.80;;
12350;SDS011;6240;51.538;7.696;2022-07-29T10:49:04;5.82;;;1.90;;
12350;SDS011;6240;51.538;7.696;2022-07-29T10:54:16;6.10;;;1.98;;
12350;SDS011;6240;51.538;7.696;2022-07-29T10:56:44;4.80;;;1.85;;
12350;SDS011;6240;51.538;7.696;2022-07-29T11:02:00;7.20;;;2.15;;
12350;SDS011;6240;51.538;7.696;2022-07-29T11:07:17;5.93;;;2.15;;
12350;SDS011;6240;51.538;7.696;2022-07-29T11:09:57;4.90;;;2.42;;
12350;SDS011;6240;51.538;7.696;2022-07-29T11:12:47;3.92;;;2.33;;
12350;SDS011;6240;51.538;7.696;2022-07-29T11:15:24;8.35;;;2.65;;
12350;SDS011;6240;51.538;7.696;2022-07-29T11:18:06;5.82;;;2.60;;
12350;SDS011;6240;51.538;7.696;2022-07-29T11:20:35;4.53;;;1.95;;
12350;SDS011;6240;51.538;7.696;2022-07-29T11:23:17;5.32;;;2.30;;
12350;SDS011;6240;51.538;7.696;2022-07-29T11:25:46;4.22;;;2.55;;
12350;SDS011;6240;51.538;7.696;2022-07-29T11:28:38;3.58;;;2.38;;
12350;SDS011;6240;51.538;7.696;2022-07-29T11:31:06;3.63;;;2.40;;
12350;SDS011;6240;51.538;7.696;2022-07-29T11:33:35;3.58;;;2.08;;
12350;SDS011;6240;51.538;7.696;2022-07-29T11:36:09;4.68;;;2.30;;
12350;SDS011;6240;51.538;7.696;2022-07-29T11:38:36;5.95;;;2.53;;
12350;SDS011;6240;51.538;7.696;2022-07-29T11:41:21;4.50;;;2.10;;
12350;SDS011;6240;51.538;7.696;2022-07-29T11:43:49;5.18;;;2.50;;
12350;SDS011;6240;51.538;7.696;2022-07-29T11:46:18;5.50;;;2.38;;
12350;SDS011;6240;51.538;7.696;2022-07-29T11:48:45;5.80;;;2.30;;
12350;SDS011;6240;51.538;7.696;2022-07-29T11:51:12;5.25;;;2.38;;
12350;SDS011;6240;51.538;7.696;2022-07-29T11:53:40;7.43;;;2.60;;
12350;SDS011;6240;51.538;7.696;2022-07-29T11:56:08;4.82;;;2.22;;
12350;SDS011;6240;51.538;7.696;2022-07-29T11:58:37;5.00;;;2.35;;
12350;SDS011;6240;51.538;7.696;2022-07-29T12:01:04;8.75;;;2.17;;
12350;SDS011;6240;51.538;7.696;2022-07-29T12:03:32;4.63;;;2.13;;
12350;SDS011;6240;51.538;7.696;2022-07-29T12:05:59;5.95;;;2.40;;
12350;SDS011;6240;51.538;7.696;2022-07-29T12:08:27;5.97;;;2.17;;
12350;SDS011;6240;51.538;7.696;2022-07-29T12:10:54;3.28;;;1.90;;
12350;SDS011;6240;51.538;7.696;2022-07-29T12:13:21;5.28;;;2.58;;
12350;SDS011;6240;51.538;7.696;2022-07-29T12:15:53;5.38;;;2.47;;
12350;SDS011;6240;51.538;7.696;2022-07-29T12:18:22;6.97;;;2.38;;
12350;SDS011;6240;51.538;7.696;2022-07-29T12:20:56;9.27;;;2.17;;
12350;SDS011;6240;51.538;7.696;2022-07-29T12:23:24;7.82;;;2.28;;
12350;SDS011;6240;51.538;7.696;2022-07-29T12:25:54;7.15;;;2.40;;
12350;SDS011;6240;51.538;7.696;2022-07-29T12:28:23;5.47;;;2.08;;
12350;SDS011;6240;51.538;7.696;2022-07-29T12:30:51;6.22;;;2.25;;
12350;SDS011;6240;51.538;7.696;2022-07-29T12:33:22;4.82;;;2.47;;
12350;SDS011;6240;51.538;7.696;2022-07-29T12:35:50;4.65;;;2.15;;
12350;SDS011;6240;51.538;7.696;2022-07-29T12:38:22;3.72;;;2.28;;
12350;SDS011;6240;51.538;7.696;2022-07-29T12:40:52;5.20;;;2.10;;
12350;SDS011;6240;51.538;7.696;2022-07-29T12:43:23;4.80;;;2.10;;
12350;SDS011;6240;51.538;7.696;2022-07-29T12:45:54;8.52;;;2.35;;
12350;SDS011;6240;51.538;7.696;2022-07-29T12:48:34;5.47;;;2.20;;
12350;SDS011;6240;51.538;7.696;2022-07-29T12:51:03;5.88;;;2.40;;
12350;SDS011;6240;51.538;7.696;2022-07-29T12:53:33;5.70;;;2.22;;
12350;SDS011;6240;51.538;7.696;2022-07-29T12:56:02;3.75;;;2.03;;
12350;SDS011;6240;51.538;7.696;2022-07-29T12:58:33;5.20;;;2.40;;
12350;SDS011;6240;51.538;7.696;2022-07-29T13:01:07;6.50;;;2.60;;
12350;SDS011;6240;51.538;7.696;2022-07-29T13:03:47;3.58;;;2.08;;
12350;SDS011;6240;51.538;7.696;2022-07-29T13:06:28;8.27;;;2.50;;
12350;SDS011;6240;51.538;7.696;2022-07-29T13:09:00;6.57;;;2.17;;
12350;SDS011;6240;51.538;7.696;2022-07-29T13:11:28;7.40;;;2.13;;
12350;SDS011;6240;51.538;7.696;2022-07-29T13:13:56;5.70;;;2.28;;
12350;SDS011;6240;51.538;7.696;2022-07-29T13:16:25;5.38;;;2.28;;
12350;SDS011;6240;51.538;7.696;2022-07-29T13:19:08;6.28;;;2.10;;
12350;SDS011;6240;51.538;7.696;2022-07-29T13:21:36;5.25;;;2.13;;
12350;SDS011;6240;51.538;7.696;2022-07-29T13:24:04;7.50;;;2.50;;
12350;SDS011;6240;51.538;7.696;2022-07-29T13:26:32;5.20;;;2.20;;
12350;SDS011;6240;51.538;7.696;2022-07-29T13:28:59;4.38;;;1.85;;
12350;SDS011;6240;51.538;7.696;2022-07-29T13:31:28;7.97;;;2.45;;
12350;SDS011;6240;51.538;7.696;2022-07-29T13:33:56;6.10;;;2.28;;
12350;SDS011;6240;51.538;7.696;2022-07-29T13:36:25;2.90;;;1.77;;
12350;SDS011;6240;51.538;7.696;2022-07-29T13:38:52;2.90;;;2.13;;
12350;SDS011;6240;51.538;7.696;2022-07-29T13:41:19;6.00;;;2.20;;
12350;SDS011;6240;51.538;7.696;2022-07-29T13:43:46;5.53;;;2.30;;
12350;SDS011;6240;51.538;7.696;2022-07-29T13:46:13;6.97;;;2.30;;
12350;SDS011;6240;51.538;7.696;2022-07-29T13:48:41;7.53;;;2.60;;
12350;SDS011;6240;51.538;7.696;2022-07-29T13:51:08;4.47;;;2.45;;
12350;SDS011;6240;51.538;7.696;2022-07-29T13:53:37;4.22;;;2.42;;
12350;SDS011;6240;51.538;7.696;2022-07-29T13:56:05;4.25;;;2.13;;
12350;SDS011;6240;51.538;7.696;2022-07-29T13:58:38;6.40;;;2.22;;
12350;SDS011;6240;51.538;7.696;2022-07-29T14:01:06;5.07;;;2.40;;
12350;SDS011;6240;51.538;7.696;2022-07-29T14:03:33;4.32;;;2.40;;
12350;SDS011;6240;51.538;7.696;2022-07-29T14:06:03;3.85;;;2.30;;
12350;SDS011;6240;51.538;7.696;2022-07-29T14:08:30;4.90;;;2.70;;
12350;SDS011;6240;51.538;7.696;2022-07-29T14:10:59;6.78;;;2.83;;
12350;SDS011;6240;51.538;7.696;2022-07-29T14:13:26;8.90;;;3.85;;
12350;SDS011;6240;51.538;7.696;2022-07-29T14:15:54;4.65;;;2.90;;
12350;SDS011;6240;51.538;7.696;2022-07-29T14:18:21;4.80;;;3.22;;
12350;SDS011;6240;51.538;7.696;2022-07-29T14:20:48;5.57;;;2.97;;
12350;SDS011;6240;51.538;7.696;2022-07-29T14:23:17;3.05;;;2.60;;
12350;SDS011;6240;51.538;7.696;2022-07-29T14:25:46;5.75;;;2.83;;
12350;SDS011;6240;51.538;7.696;2022-07-29T14:28:15;5.22;;;2.95;;
12350;SDS011;6240;51.538;7.696;2022-07-29T14:30:42;5.30;;;2.50;;
12350;SDS011;6240;51.538;7.696;2022-07-29T14:33:10;4.53;;;2.90;;
12350;SDS011;6240;51.538;7.696;2022-07-29T14:35:39;4.53;;;2.40;;
12350;SDS011;6240;51.538;7.696;2022-07-29T14:38:08;6.35;;;3.10;;
12350;SDS011;6240;51.538;7.696;2022-07-29T14:40:35;8.95;;;2.95;;
12350;SDS011;6240;51.538;7.696;2022-07-29T14:43:02;6.22;;;3.08;;
12350;SDS011;6240;51.538;7.696;2022-07-29T14:45:34;5.45;;;3.03;;
12350;SDS011;6240;51.538;7.696;2022-07-29T14:48:04;6.60;;;2.80;;
12350;SDS011;6240;51.538;7.696;2022-07-29T14:50:34;6.38;;;2.35;;
12350;SDS011;6240;51.538;7.696;2022-07-29T14:53:01;2.83;;;2.10;;
12350;SDS011;6240;51.538;7.696;2022-07-29T14:55:30;3.70;;;2.65;;
12350;SDS011;6240;51.538;7.696;2022-07-29T14:58:01;7.15;;;3.00;;
12350;SDS011;6240;51.538;7.696;2022-07-29T15:00:31;5.85;;;2.50;;
12350;SDS011;6240;51.538;7.696;2022-07-29T15:02:59;5.55;;;3.20;;
12350;SDS011;6240;51.538;7.696;2022-07-29T15:05:26;7.78;;;3.00;;
12350;SDS011;6240;51.538;7.696;2022-07-29T15:07:54;8.93;;;3.28;;
12350;SDS011;6240;51.538;7.696;2022-07-29T15:10:23;4.10;;;2.95;;
12350;SDS011;6240;51.538;7.696;2022-07-29T15:12:53;3.88;;;2.50;;
12350;SDS011;6240;51.538;7.696;2022-07-29T15:15:20;4.43;;;2.47;;
12350;SDS011;6240;51.538;7.696;2022-07-29T15:17:49;3.92;;;2.35;;
12350;SDS011;6240;51.538;7.696;2022-07-29T15:20:18;5.97;;;2.30;;